Time;durP1;ratioP1;P1;durP2;ratioP2;P2;SDS_P1;SDS_P2;PMS_P1;PMS_P2;Temp;Humidity;BMP_temperature;BMP_pressure;BME280_temperature;BME280_humidity;BME280_pressure;Samples;Min_cycle;Max_cycle;Signal;HPM_P1;HPM_P2
2022/10/20 00:00:59;;;;;;;11.60;7.38;;;;;;;;;;5083548;28;20128;-69
2022/10/20 00:03:24;;;;;;;10.90;7.88;;;;;;;;;;5081129;28;20200;-69
2022/10/20 00:05:50;;;;;;;11.80;8.65;;;;;;;;;;5068490;28;20044;-69
2022/10/20 00:08:15;;;;;;;10.77;8.13;;;;;;;;;;5068179;28;20699;-71
2022/10/20 00:10:40;;;;;;;12.80;8.57;;;;;;;;;;5084858;28;20124;-71
2022/10/20 00:13:05;;;;;;;11.27;8.23;;;;;;;;;;5087489;28;20028;-71
2022/10/20 00:15:31;;;;;;;12.03;8.40;;;;;;;;;;5070054;28;20098;-71
2022/10/20 00:17:56;;;;;;;14.30;9.43;;;;;;;;;;5086697;28;20782;-70
2022/10/20 00:20:21;;;;;;;12.13;8.97;;;;;;;;;;5085650;28;20044;-71
2022/10/20 00:22:46;;;;;;;12.37;8.17;;;;;;;;;;5093145;28;20407;-70
2022/10/20 00:25:11;;;;;;;14.97;10.20;;;;;;;;;;5068159;28;20283;-70
2022/10/20 00:27:37;;;;;;;13.70;9.60;;;;;;;;;;5084654;28;20040;-70
2022/10/20 00:30:02;;;;;;;13.17;8.53;;;;;;;;;;5085312;28;20473;-70
2022/10/20 00:32:29;;;;;;;11.55;8.00;;;;;;;;;;5084896;28;20044;-70
2022/10/20 00:34:54;;;;;;;14.20;9.50;;;;;;;;;;5084799;28;20443;-70
2022/10/20 00:37:19;;;;;;;13.23;8.97;;;;;;;;;;5085746;28;20046;-70
2022/10/20 00:39:44;;;;;;;12.33;8.20;;;;;;;;;;5085240;28;20047;-70
2022/10/20 00:42:13;;;;;;;15.30;9.13;;;;;;;;;;5081624;28;20551;-71
2022/10/20 00:44:55;;;;;;;12.52;8.48;;;;;;;;;;5069319;28;20082;-70
2022/10/20 00:47:20;;;;;;;11.88;8.00;;;;;;;;;;5066737;28;20445;-70
2022/10/20 00:49:46;;;;;;;10.93;7.73;;;;;;;;;;5086382;28;20047;-70
2022/10/20 00:52:11;;;;;;;12.63;8.15;;;;;;;;;;5077091;28;20234;-70
2022/10/20 00:54:37;;;;;;;11.05;7.63;;;;;;;;;;5080190;28;20036;-70
2022/10/20 00:57:02;;;;;;;10.60;7.67;;;;;;;;;;5083734;28;20090;-70
2022/10/20 00:59:30;;;;;;;11.57;7.80;;;;;;;;;;5084698;28;20290;-70
2022/10/20 01:01:56;;;;;;;10.73;7.28;;;;;;;;;;5085864;28;20301;-70
2022/10/20 01:04:22;;;;;;;9.05;6.00;;;;;;;;;;5087277;28;20051;-70
2022/10/20 01:06:47;;;;;;;9.52;5.75;;;;;;;;;;5093063;28;20139;-70
2022/10/20 01:09:12;;;;;;;8.68;6.63;;;;;;;;;;5075640;28;20501;-70
2022/10/20 01:11:45;;;;;;;9.00;6.47;;;;;;;;;;5069855;28;20052;-70
2022/10/20 01:14:24;;;;;;;8.07;5.93;;;;;;;;;;5075366;28;20283;-70
2022/10/20 01:17:08;;;;;;;8.20;5.13;;;;;;;;;;5067456;28;20122;-70
2022/10/20 01:19:33;;;;;;;11.45;6.63;;;;;;;;;;5087830;28;20035;-70
2022/10/20 01:22:18;;;;;;;8.77;6.67;;;;;;;;;;5089109;28;20036;-70
2022/10/20 01:24:50;;;;;;;10.68;6.78;;;;;;;;;;5067937;28;20040;-70
2022/10/20 01:27:36;;;;;;;9.10;6.30;;;;;;;;;;5066343;28;20527;-70
2022/10/20 01:30:04;;;;;;;8.98;6.75;;;;;;;;;;5076328;28;20123;-70
2022/10/20 01:32:48;;;;;;;6.80;5.50;;;;;;;;;;5068576;28;20037;-70
2022/10/20 01:35:16;;;;;;;9.68;6.38;;;;;;;;;;5081162;28;20032;-70
2022/10/20 01:37:41;;;;;;;11.00;6.10;;;;;;;;;;5084566;28;20441;-70
2022/10/20 01:40:14;;;;;;;7.40;5.47;;;;;;;;;;5085055;28;20066;-71
2022/10/20 01:42:39;;;;;;;;;;;;;;;;;;5081890;28;20422;-70
2022/10/20 01:45:06;;;;;;;11.90;7.18;;;;;;;;;;5083339;28;20379;-70
2022/10/20 01:47:32;;;;;;;6.75;5.20;;;;;;;;;;5067260;28;20067;-71
2022/10/20 01:49:57;;;;;;;;;;;;;;;;;;5064816;28;20054;-70
2022/10/20 01:52:23;;;;;;;8.27;5.97;;;;;;;;;;5085598;28;19915;-70
2022/10/20 01:54:51;;;;;;;7.90;5.80;;;;;;;;;;5083529;28;20038;-70
2022/10/20 01:57:39;;;;;;;8.32;6.00;;;;;;;;;;5081471;28;20496;-70
2022/10/20 02:00:08;;;;;;;6.88;4.88;;;;;;;;;;5065509;28;20124;-70
2022/10/20 02:02:44;;;;;;;9.82;6.35;;;;;;;;;;5085415;28;20052;-69
2022/10/20 02:05:16;;;;;;;11.75;7.40;;;;;;;;;;5080421;28;21532;-70
2022/10/20 02:07:42;;;;;;;11.32;7.40;;;;;;;;;;5064156;28;20125;-70
2022/10/20 02:10:13;;;;;;;12.47;7.87;;;;;;;;;;5063662;28;20056;-71
2022/10/20 02:12:38;;;;;;;;;;;;;;;;;;5082538;28;20036;-70
2022/10/20 02:15:04;;;;;;;11.25;7.20;;;;;;;;;;5083883;28;19916;-70
2022/10/20 02:17:31;;;;;;;10.80;6.80;;;;;;;;;;5079587;28;20077;-70
2022/10/20 02:19:57;;;;;;;9.95;6.85;;;;;;;;;;5080941;28;20040;-70
2022/10/20 02:22:22;;;;;;;10.10;7.47;;;;;;;;;;5083484;28;20046;-70
2022/10/20 02:24:48;;;;;;;8.43;6.72;;;;;;;;;;5065323;28;20040;-70
2022/10/20 02:27:14;;;;;;;8.52;6.43;;;;;;;;;;5079126;28;20043;-70
2022/10/20 02:29:53;;;;;;;6.90;5.00;;;;;;;;;;5064175;28;20043;-70
2022/10/20 02:32:18;;;;;;;8.40;6.30;;;;;;;;;;5083164;28;20028;-70
2022/10/20 02:34:44;;;;;;;10.30;7.00;;;;;;;;;;5067330;28;20044;-70
2022/10/20 02:37:09;;;;;;;8.07;6.17;;;;;;;;;;5086137;28;20064;-70
2022/10/20 02:39:34;;;;;;;6.60;4.93;;;;;;;;;;5082063;28;20494;-70
2022/10/20 02:41:59;;;;;;;5.43;4.30;;;;;;;;;;5082880;28;20114;-70
2022/10/20 02:44:24;;;;;;;;;;;;;;;;;;5085129;28;20681;-70
2022/10/20 02:46:50;;;;;;;8.45;6.18;;;;;;;;;;5085493;28;19923;-70
2022/10/20 02:49:15;;;;;;;8.68;6.53;;;;;;;;;;5083535;28;20032;-70
2022/10/20 02:51:40;;;;;;;6.20;5.20;;;;;;;;;;5078547;28;20432;-70
2022/10/20 02:54:05;;;;;;;8.27;6.57;;;;;;;;;;5062289;28;20979;-71
2022/10/20 02:56:31;;;;;;;;;;;;;;;;;;5067154;28;20044;-70
2022/10/20 02:58:56;;;;;;;7.50;5.97;;;;;;;;;;5078696;28;19923;-70
2022/10/20 03:01:21;;;;;;;;;;;;;;;;;;5085275;28;20089;-70
2022/10/20 03:03:46;;;;;;;8.70;6.07;;;;;;;;;;5085499;28;20295;-71
2022/10/20 03:06:13;;;;;;;11.10;6.93;;;;;;;;;;5089966;28;20044;-70
2022/10/20 03:08:38;;;;;;;7.32;5.85;;;;;;;;;;5086262;28;20059;-70
2022/10/20 03:11:03;;;;;;;6.47;5.20;;;;;;;;;;5083509;28;20524;-70
2022/10/20 03:13:29;;;;;;;;;;;;;;;;;;5071428;28;20782;-70
2022/10/20 03:15:54;;;;;;;;;;;;;;;;;;5086367;28;19916;-70
2022/10/20 03:18:19;;;;;;;;;;;;;;;;;;5087730;28;19920;-70
2022/10/20 03:20:44;;;;;;;;;;;;;;;;;;5069483;28;19916;-70
2022/10/20 03:23:09;;;;;;;;;;;;;;;;;;5083400;28;20377;-70
2022/10/20 03:25:34;;;;;;;7.63;6.03;;;;;;;;;;5072210;28;20400;-70
2022/10/20 03:27:59;;;;;;;6.60;5.40;;;;;;;;;;5070147;28;20408;-71
2022/10/20 03:30:25;;;;;;;7.57;5.60;;;;;;;;;;5069700;28;20392;-70
2022/10/20 03:32:50;;;;;;;7.57;6.27;;;;;;;;;;5071004;28;20413;-70
2022/10/20 03:35:15;;;;;;;;;;;;;;;;;;5077812;28;20136;-70
2022/10/20 03:37:40;;;;;;;10.80;7.15;;;;;;;;;;5076525;28;19927;-71
2022/10/20 03:40:05;;;;;;;;;;;;;;;;;;5071852;28;20378;-70
2022/10/20 03:42:30;;;;;;;;;;;;;;;;;;5075771;28;19913;-70
2022/10/20 03:44:56;;;;;;;;;;;;;;;;;;5074688;28;20273;-67
2022/10/20 03:47:21;;;;;;;;;;;;;;;;;;5072625;28;19916;-70
2022/10/20 03:49:46;;;;;;;9.47;6.03;;;;;;;;;;5090469;28;19965;-70
2022/10/20 03:52:11;;;;;;;9.93;7.33;;;;;;;;;;5069630;28;20051;-70
2022/10/20 03:54:36;;;;;;;11.80;7.10;;;;;;;;;;5086028;28;20450;-70
2022/10/20 03:57:01;;;;;;;10.70;6.57;;;;;;;;;;5083250;28;20036;-70
2022/10/20 03:59:27;;;;;;;9.50;6.40;;;;;;;;;;5069284;28;20032;-70
2022/10/20 04:01:52;;;;;;;9.50;6.80;;;;;;;;;;5084386;28;20460;-70
2022/10/20 04:04:17;;;;;;;7.18;5.65;;;;;;;;;;5085129;28;20021;-70
2022/10/20 04:06:42;;;;;;;8.00;5.80;;;;;;;;;;5086549;28;20089;-70
2022/10/20 04:09:08;;;;;;;8.90;6.50;;;;;;;;;;5085561;28;20274;-71
2022/10/20 04:11:33;;;;;;;8.43;5.90;;;;;;;;;;5085416;28;20051;-70
2022/10/20 04:13:58;;;;;;;9.00;6.13;;;;;;;12.01;nan;100491.06;5067521;28;20040;-70
2022/10/20 04:16:24;;;;;;;7.40;5.93;;;;;;;11.92;nan;100473.47;5085778;28;20140;-70
2022/10/20 04:18:50;;;;;;;10.68;6.82;;;;;;;;;;5080658;28;20059;-70
2022/10/20 04:21:15;;;;;;;8.10;5.68;;;;;;;;;;5090188;28;20508;-70
2022/10/20 04:23:41;;;;;;;7.70;4.90;;;;;;;;;;5088294;28;20119;-70
2022/10/20 04:26:07;;;;;;;6.80;5.20;;;;;;;;;;5068819;28;20042;-70
2022/10/20 04:28:32;;;;;;;8.30;6.22;;;;;;;;;;5080281;28;20531;-70
2022/10/20 04:30:58;;;;;;;6.03;4.90;;;;;;;;;;5074780;28;20059;-70
2022/10/20 04:33:23;;;;;;;8.10;5.35;;;;;;;;;;5082809;28;20105;-70
2022/10/20 04:35:54;;;;;;;10.17;7.20;;;;;;;;;;5086665;28;20512;-70
2022/10/20 04:38:19;;;;;;;9.57;5.80;;;;;;;;;;5081804;28;20032;-71
2022/10/20 04:40:52;;;;;;;9.60;6.53;;;;;;;;;;5085765;28;20039;-70
2022/10/20 04:43:17;;;;;;;8.88;6.85;;;;;;;;;;5068862;28;20032;-70
2022/10/20 04:45:42;;;;;;;11.63;7.63;;;;;;;;;;5067913;28;20060;-70
2022/10/20 04:48:07;;;;;;;10.20;7.00;;;;;;;;;;5066611;28;20036;-70
2022/10/20 04:50:32;;;;;;;9.27;6.73;;;;;;;;;;5079557;28;20051;-70
2022/10/20 04:52:58;;;;;;;10.20;7.43;;;;;;;;;;5067463;28;20045;-70
2022/10/20 04:55:23;;;;;;;10.40;7.25;;;;;;;;;;5068375;28;20035;-71
2022/10/20 04:57:48;;;;;;;8.37;6.80;;;;;;;;;;5085984;28;20070;-70
2022/10/20 05:00:14;;;;;;;9.53;7.57;;;;;;;;;;5084775;28;20039;-70
2022/10/20 05:02:39;;;;;;;10.55;7.43;;;;;;;;;;5086771;28;20084;-70
2022/10/20 05:05:04;;;;;;;9.33;6.93;;;;;;;;;;5087376;28;20500;-70
2022/10/20 05:07:29;;;;;;;7.85;5.95;;;;;;;;;;5081760;28;20059;-70
2022/10/20 05:09:54;;;;;;;8.87;6.10;;;;;;;;;;5067012;28;20067;-70
2022/10/20 05:12:20;;;;;;;9.60;6.47;;;;;;;;;;5072845;28;20033;-70
2022/10/20 05:14:45;;;;;;;9.45;6.35;;;;;;;;;;5075826;28;20036;-70
2022/10/20 05:17:10;;;;;;;8.60;6.17;;;;;;;;;;5067100;28;20343;-70
2022/10/20 05:19:35;;;;;;;8.77;5.70;;;;;;;;;;5066733;28;20279;-73
2022/10/20 05:22:01;;;;;;;8.13;5.97;;;;;;;;;;5082193;28;20029;-70
2022/10/20 05:24:27;;;;;;;7.93;5.93;;;;;;;;;;5084783;28;20270;-70
2022/10/20 05:26:52;;;;;;;10.93;7.20;;;;;;;;;;5078072;28;20097;-70
2022/10/20 05:29:17;;;;;;;11.40;8.02;;;;;;;;;;5066112;28;20283;-71
2022/10/20 05:31:42;;;;;;;9.27;7.20;;;;;;;;;;5065488;28;20408;-70
2022/10/20 05:34:08;;;;;;;12.05;8.13;;;;;;;;;;5074761;28;20435;-70
2022/10/20 05:36:34;;;;;;;11.77;9.00;;;;;;;12.09;nan;100445.19;5084736;28;20044;-70
2022/10/20 05:38:59;;;;;;;12.07;8.00;;;;;;;;;;5083045;28;20059;-70
2022/10/20 05:41:26;;;;;;;12.37;8.47;;;;;;;;;;5085987;28;20078;-71
2022/10/20 05:43:53;;;;;;;13.02;8.15;;;;;;;;;;5083438;28;21001;-70
2022/10/20 05:46:18;;;;;;;12.15;8.75;;;;;;;;;;5083807;28;20035;-70
2022/10/20 05:48:43;;;;;;;12.93;9.73;;;;;;;;;;5081498;28;20117;-70
2022/10/20 05:51:16;;;;;;;14.43;10.23;;;;;;;;;;5080493;28;20032;-70
2022/10/20 05:53:42;;;;;;;14.10;10.40;;;;;;;;;;5085337;28;20044;-70
2022/10/20 05:56:08;;;;;;;13.73;9.60;;;;;;;;;;5077173;28;20549;-70
2022/10/20 05:58:33;;;;;;;13.88;9.93;;;;;;;;;;5083962;28;20050;-70
2022/10/20 06:01:05;;;;;;;14.80;9.50;;;;;;;;;;5082622;28;20127;-70
2022/10/20 06:03:30;;;;;;;13.63;9.60;;;;;;;;;;5065801;28;20048;-70
2022/10/20 06:05:56;;;;;;;11.33;8.13;;;;;;;;;;5066309;28;20032;-70
2022/10/20 06:08:21;;;;;;;14.30;9.43;;;;;;;;;;5065482;28;20370;-71
2022/10/20 06:10:46;;;;;;;15.80;10.83;;;;;;;;;;5067611;28;20105;-70
2022/10/20 06:13:11;;;;;;;17.70;11.40;;;;;;;;;;5080646;28;20397;-70
2022/10/20 06:15:37;;;;;;;17.93;10.77;;;;;;;;;;5079161;28;20044;-70
2022/10/20 06:18:02;;;;;;;18.08;11.73;;;;;;;;;;5081747;28;20501;-69
2022/10/20 06:20:27;;;;;;;16.03;11.00;;;;;;;;;;5082338;28;20046;-70
2022/10/20 06:22:52;;;;;;;16.43;11.50;;;;;;;;;;5087420;28;20524;-70
2022/10/20 06:25:17;;;;;;;15.60;11.50;;;;;;;;;;5079980;28;20052;-70
2022/10/20 06:27:43;;;;;;;19.83;11.53;;;;;;;;;;5084893;28;20166;-70
2022/10/20 06:30:08;;;;;;;16.08;11.65;;;;;;;;;;5080169;28;20033;-70
2022/10/20 06:32:33;;;;;;;16.48;11.35;;;;;;;;;;5071842;28;20046;-70
2022/10/20 06:34:59;;;;;;;15.57;11.10;;;;;;;;;;5083307;28;20049;-70
2022/10/20 06:37:24;;;;;;;17.60;11.70;;;;;;;;;;5082510;28;20290;-71
2022/10/20 06:39:49;;;;;;;16.87;11.40;;;;;;;;;;5089754;28;20035;-71
2022/10/20 06:42:14;;;;;;;14.77;10.43;;;;;;;;;;5087071;28;20389;-71
2022/10/20 06:44:39;;;;;;;14.33;10.40;;;;;;;;;;5069711;28;20388;-71
2022/10/20 06:47:08;;;;;;;15.23;10.33;;;;;;;;;;5089684;28;20067;-71
2022/10/20 06:49:34;;;;;;;14.25;10.00;;;;;;;;;;5086846;28;20036;-71
2022/10/20 06:51:59;;;;;;;14.23;8.83;;;;;;;;;;5091121;28;20062;-71
2022/10/20 06:54:24;;;;;;;10.57;7.93;;;;;;;;;;5087341;28;21483;-71
2022/10/20 06:56:49;;;;;;;9.57;7.18;;;;;;;;;;5086657;28;20282;-71
2022/10/20 06:59:14;;;;;;;10.03;7.03;;;;;;;;;;5089908;28;20032;-71
2022/10/20 07:01:40;;;;;;;9.03;6.83;;;;;;;;;;5090181;28;20397;-71
2022/10/20 07:04:06;;;;;;;10.55;7.68;;;;;;;;;;5066745;28;20130;-71
2022/10/20 07:06:33;;;;;;;6.85;5.65;;;;;;;;;;5093116;28;20051;-71
2022/10/20 07:08:59;;;;;;;10.63;7.40;;;;;;;;;;5069683;28;20032;-71
2022/10/20 07:11:25;;;;;;;13.60;8.93;;;;;;;;;;5088239;28;20412;-71
2022/10/20 07:13:50;;;;;;;11.70;7.80;;;;;;;;;;5088496;28;20051;-72
2022/10/20 07:16:17;;;;;;;9.52;7.25;;;;;;;;;;5088510;28;20036;-71
2022/10/20 07:18:42;;;;;;;10.35;7.10;;;;;;;;;;5084422;28;20052;-71
2022/10/20 07:21:09;;;;;;;11.40;8.20;;;;;;;;;;5087198;28;20492;-71
2022/10/20 07:23:35;;;;;;;10.35;7.32;;;;;;;;;;5082925;28;20047;-71
2022/10/20 07:26:01;;;;;;;8.73;6.73;;;;;;;;;;5084766;28;20044;-71
2022/10/20 07:28:26;;;;;;;9.35;5.93;;;;;;;;;;5068192;28;20785;-71
2022/10/20 07:30:51;;;;;;;9.05;6.93;;;;;;;;;;5087541;28;20093;-71
2022/10/20 07:33:16;;;;;;;7.40;5.80;;;;;;;;;;5086686;28;20480;-71
2022/10/20 07:35:42;;;;;;;7.87;5.93;;;;;;;;;;5077172;28;20057;-69
2022/10/20 07:38:07;;;;;;;9.13;6.00;;;;;;;;;;5083255;28;20449;-69
2022/10/20 07:40:32;;;;;;;;;;;;;;;;;;5089133;28;20139;-69
2022/10/20 07:42:57;;;;;;;;;;;;;;;;;;5087719;28;19969;-69
2022/10/20 07:45:22;;;;;;;10.40;8.25;;;;;;;;;;5082323;28;19916;-69
2022/10/20 07:47:47;;;;;;;10.33;7.70;;;;;;;;;;5069394;28;20046;-69
2022/10/20 07:50:13;;;;;;;11.47;8.03;;;;;;;;;;5089284;28;20020;-69
2022/10/20 07:52:38;;;;;;;10.93;8.00;;;;;;;;;;5089306;28;20078;-69
2022/10/20 07:55:04;;;;;;;8.95;6.85;;;;;;;14.13;nan;100438.47;5080412;28;20282;-69
2022/10/20 07:57:29;;;;;;;9.75;6.93;;;;;;;;;;5087266;28;20064;-69
2022/10/20 07:59:55;;;;;;;10.17;7.13;;;;;;;;;;5085228;28;20504;-70
2022/10/20 08:02:20;;;;;;;7.67;5.77;;;;;;;;;;5068986;28;20040;-69
2022/10/20 08:04:45;;;;;;;8.10;6.17;;;;;;;;;;5088820;28;20115;-69
2022/10/20 08:07:10;;;;;;;7.63;5.75;;;;;;;;;;5087091;28;20787;-69
2022/10/20 08:09:35;;;;;;;;;;;;;;;;;;5065504;28;20035;-69
2022/10/20 08:12:00;;;;;;;;;;;;;;;;;;5088770;28;20337;-69
2022/10/20 08:14:26;;;;;;;9.15;7.00;;;;;;;;;;5080401;28;19928;-69
2022/10/20 08:16:51;;;;;;;10.67;7.57;;;;;;;15.27;nan;100478.41;5066383;28;20396;-69
2022/10/20 08:19:16;;;;;;;10.63;8.23;;;;;;;;;;5085756;28;20081;-69
2022/10/20 08:21:41;;;;;;;10.77;7.80;;;;;;;;;;5086944;28;20124;-69
2022/10/20 08:24:07;;;;;;;12.47;8.03;;;;;;;;;;5086056;28;20643;-69
2022/10/20 08:26:32;;;;;;;;;;;;;;;;;;5083418;28;20248;-69
2022/10/20 08:28:57;;;;;;;11.15;8.50;;;;;;;;;;5080347;28;19915;-69
2022/10/20 08:31:22;;;;;;;6.72;5.47;;;;;;;;;;5076192;28;20461;-69
2022/10/20 08:33:48;;;;;;;9.30;7.13;;;;;;;;;;5077657;28;20040;-69
2022/10/20 08:36:13;;;;;;;;;;;;;;;;;;5067223;28;20337;-69
2022/10/20 08:38:39;;;;;;;9.60;7.25;;;;;;;;;;5076637;28;19919;-70
2022/10/20 08:41:05;;;;;;;8.65;6.50;;;;;;;;;;5086734;28;20078;-69
2022/10/20 08:43:32;;;;;;;9.15;7.25;;;;;;;;;;5085613;28;20549;-69
2022/10/20 08:45:58;;;;;;;7.95;6.13;;;;;;;;;;5083330;28;20417;-70
2022/10/20 08:48:24;;;;;;;5.67;4.70;;;;;;;;;;5079282;28;20785;-69
2022/10/20 08:50:51;;;;;;;6.20;5.40;;;;;;;;;;5082409;28;20576;-69
2022/10/20 08:53:18;;;;;;;7.93;6.13;;;;;;;;;;5082392;28;20872;-69
2022/10/20 08:55:44;;;;;;;5.93;5.00;;;;;;;;;;5068152;28;20044;-69
2022/10/20 08:58:09;;;;;;;;;;;;;;;;;;5083436;28;20421;-69
2022/10/20 09:00:34;;;;;;;;;;;;;;;;;;5081980;28;20377;-69
2022/10/20 09:03:01;;;;;;;8.18;5.65;;;;;;;;;;5067572;28;19924;-70
2022/10/20 09:05:28;;;;;;;7.43;5.88;;;;;;;;;;5069892;28;20432;-69
2022/10/20 09:07:53;;;;;;;8.70;6.40;;;;;;;;;;5084085;28;20594;-69
2022/10/20 09:10:28;;;;;;;8.60;6.45;;;;;;;;;;5079378;28;20059;-69
2022/10/20 09:12:53;;;;;;;8.85;6.75;;;;;;;;;;5081252;28;20364;-70
2022/10/20 09:15:19;;;;;;;8.80;5.93;;;;;;;;;;5083159;28;20406;-69
2022/10/20 09:18:08;;;;;;;7.07;6.03;;;;;;;;;;5082708;28;20515;-69
2022/10/20 09:20:36;;;;;;;8.93;6.47;;;;;;;;;;5085160;28;20089;-69
2022/10/20 09:23:01;;;;;;;8.65;6.35;;;;;;;;;;5068654;28;20055;-69
2022/10/20 09:25:26;;;;;;;8.95;5.70;;;;;;;;;;5084569;28;20044;-69
2022/10/20 09:27:52;;;;;;;10.33;6.90;;;;;;;;;;5067397;28;20048;-69
2022/10/20 09:30:20;;;;;;;8.20;6.50;;;;;;;;;;5084737;28;20048;-70
2022/10/20 09:32:45;;;;;;;9.65;7.18;;;;;;;;;;5082869;28;20028;-70
2022/10/20 09:35:16;;;;;;;7.40;5.97;;;;;;;;;;5064965;28;20039;-70
2022/10/20 09:37:50;;;;;;;9.25;6.45;;;;;;;;;;5080930;28;20184;-70
2022/10/20 09:40:17;;;;;;;9.80;7.40;;;;;;;;;;5077362;28;20031;-70
2022/10/20 09:42:52;;;;;;;8.63;6.78;;;;;;;17.98;nan;100477.50;5079540;28;20570;-70
2022/10/20 09:45:21;;;;;;;7.55;6.03;;;;;;;;;;5078196;28;20039;-70
2022/10/20 09:47:49;;;;;;;11.50;8.13;;;;;;;;;;5061997;28;21253;-69
2022/10/20 09:50:21;;;;;;;11.23;7.93;;;;;;;;;;5078193;28;20036;-69
2022/10/20 09:52:46;;;;;;;10.95;7.50;;;;;;;;;;5064244;28;20035;-70
2022/10/20 09:55:19;;;;;;;8.57;6.57;;;;;;;;;;5081302;28;20420;-70
2022/10/20 09:57:46;;;;;;;10.23;7.63;;;;;;;;;;5080537;28;20069;-70
2022/10/20 10:00:21;;;;;;;9.52;6.53;;;;;;;;;;5082678;28;20047;-70
2022/10/20 10:02:46;;;;;;;12.38;7.75;;;;;;;18.78;nan;100407.97;5084929;28;20056;-70
2022/10/20 10:05:18;;;;;;;10.27;7.95;;;;;;;;;;5083247;28;20064;-70
2022/10/20 10:07:43;;;;;;;8.48;6.35;;;;;;;18.38;nan;100408.81;5061678;28;20532;-70
2022/10/20 10:10:17;;;;;;;9.10;7.15;;;;;;;;;;5084844;28;20032;-70
2022/10/20 10:12:49;;;;;;;9.25;6.28;;;;;;;;;;5084583;28;20040;-70
2022/10/20 10:15:38;;;;;;;7.47;5.18;;;;;;;;;;5064400;28;20032;-70
2022/10/20 10:18:13;;;;;;;11.25;6.32;;;;;;;;;;5078407;28;20086;-70
2022/10/20 10:20:39;;;;;;;9.73;7.20;;;;;;;;;;5066487;28;20047;-70
2022/10/20 10:23:21;;;;;;;12.90;7.82;;;;;;;18.41;nan;100376.25;5083251;28;20040;-70
2022/10/20 10:25:46;;;;;;;11.38;8.65;;;;;;;;;;5081874;28;20043;-70
2022/10/20 10:28:30;;;;;;;13.07;8.40;;;;;;;;;;5078239;28;20040;-70
2022/10/20 10:31:06;;;;;;;9.73;6.57;;;;;;;;;;5081973;28;20244;-69
2022/10/20 10:33:32;;;;;;;8.90;6.78;;;;;;;;;;5083124;28;20028;-70
2022/10/20 10:35:58;;;;;;;8.68;6.25;;;;;;;;;;5080991;28;20392;-70
2022/10/20 10:38:23;;;;;;;7.35;5.72;;;;;;;20.58;nan;100349.63;5081618;28;20040;-70
2022/10/20 10:40:56;;;;;;;7.57;5.45;;;;;;;20.76;nan;100375.72;5081741;28;20028;-70
2022/10/20 10:43:40;;;;;;;9.55;6.82;;;;;;;20.56;nan;100350.91;5081962;28;20040;-70
2022/10/20 10:46:41;;;;;;;8.35;5.88;;;;;;;20.70;nan;100355.09;5083116;28;20036;-70
2022/10/20 10:49:19;;;;;;;11.68;7.05;;;;;;;;;;5076641;28;20411;-70
2022/10/20 10:52:14;;;;;;;10.05;6.00;;;;;;;21.12;nan;100371.38;5083397;28;20047;-70
2022/10/20 10:55:02;;;;;;;9.25;6.57;;;;;;;21.05;nan;100343.75;5080590;28;20028;-70
2022/10/20 10:57:56;;;;;;;5.75;4.32;;;;;;;20.83;nan;100313.81;5059243;28;20569;-70
2022/10/20 11:00:32;;;;;;;8.40;5.97;;;;;;;;;;5078382;28;20114;-69
2022/10/20 11:03:07;;;;;;;7.53;5.35;;;;;;;20.37;nan;100318.59;5069039;28;20032;-70
2022/10/20 11:05:55;;;;;;;7.13;4.65;;;;;;;20.37;nan;100341.94;5065983;28;20055;-70
2022/10/20 11:08:39;;;;;;;7.25;5.72;;;;;;;20.70;nan;100308.59;5084881;28;20067;-70
2022/10/20 11:11:10;;;;;;;5.97;4.88;;;;;;;20.91;nan;100332.31;5083324;28;20051;-70
2022/10/20 11:13:42;;;;;;;6.90;5.40;;;;;;;21.00;nan;100344.44;5077896;28;20040;-70
2022/10/20 11:16:20;;;;;;;10.02;6.95;;;;;;;21.10;nan;100335.00;5078274;28;20028;-70
2022/10/20 11:19:11;;;;;;;8.15;6.13;;;;;;;21.07;nan;100352.41;5079869;28;20123;-70
2022/10/20 11:21:51;;;;;;;8.05;6.38;;;;;;;20.83;nan;100383.66;5075434;28;20645;-70
2022/10/20 11:24:33;;;;;;;8.30;6.35;;;;;;;20.59;nan;100345.06;5061256;28;20034;-70
2022/10/20 11:27:12;;;;;;;8.35;6.43;;;;;;;;;;5086799;28;20036;-70
2022/10/20 11:29:49;;;;;;;8.73;6.55;;;;;;;;;;5085987;28;20459;-70
2022/10/20 11:32:14;;;;;;;7.50;5.60;;;;;;;20.05;nan;100331.28;5065243;28;20047;-70
2022/10/20 11:34:51;;;;;;;8.67;6.10;;;;;;;;;;5080259;28;20040;-70
2022/10/20 11:37:20;;;;;;;7.57;5.88;;;;;;;19.69;nan;100323.91;5063487;28;20705;-70
2022/10/20 11:40:03;;;;;;;6.05;4.50;;;;;;;19.58;nan;100306.63;5086388;28;20087;-70
2022/10/20 11:42:36;;;;;;;8.90;5.85;;;;;;;;;;5083288;28;20028;-70
2022/10/20 11:45:27;;;;;;;9.10;5.90;;;;;;;19.13;nan;100292.44;5063499;28;20089;-70
2022/10/20 11:48:03;;;;;;;7.50;5.80;;;;;;;;;;5082497;28;20044;-70
2022/10/20 11:50:29;;;;;;;6.68;5.20;;;;;;;;;;5084499;28;20048;-69
2022/10/20 11:53:43;;;;;;;7.70;5.80;;;;;;;18.96;nan;100286.75;5081250;28;20408;-70
2022/10/20 11:56:25;;;;;;;6.80;5.18;;;;;;;18.76;nan;100284.97;5065746;28;20098;-69
2022/10/20 11:59:06;;;;;;;6.80;4.40;;;;;;;;;;5076515;28;20066;-70
2022/10/20 12:02:02;;;;;;;6.22;4.65;;;;;;;17.93;nan;100293.50;5077273;28;20521;-69
2022/10/20 12:04:38;;;;;;;8.63;6.85;;;;;;;;;;5077365;28;20043;-70
2022/10/20 12:07:06;;;;;;;9.20;6.80;;;;;;;17.47;nan;100321.00;5087162;28;20040;-69
2022/10/20 12:09:37;;;;;;;7.03;5.15;;;;;;;;;;5081884;28;20044;-69
2022/10/20 12:12:05;;;;;;;9.65;5.80;;;;;;;;;;5060672;28;20109;-70
2022/10/20 12:14:37;;;;;;;8.48;5.85;;;;;;;17.64;nan;100316.09;5083261;28;20032;-69
2022/10/20 12:17:14;;;;;;;7.18;4.72;;;;;;;;;;5084845;28;20044;-69
2022/10/20 12:19:40;;;;;;;7.75;5.00;;;;;;;;;;5080398;28;20423;-69
2022/10/20 12:22:25;;;;;;;6.65;4.68;;;;;;;17.96;nan;100314.50;5086279;28;20082;-70
2022/10/20 12:24:50;;;;;;;7.50;4.93;;;;;;;;;;5083170;28;20035;-69
2022/10/20 12:27:21;;;;;;;5.00;4.20;;;;;;;18.07;nan;100315.75;5065841;28;20032;-70
2022/10/20 12:29:53;;;;;;;5.80;4.07;;;;;;;;;;5076785;28;20070;-70
2022/10/20 12:32:24;;;;;;;5.88;3.90;;;;;;;;;;5076872;28;20044;-69
2022/10/20 12:34:50;;;;;;;7.03;5.30;;;;;;;;;;5085013;28;20048;-70
2022/10/20 12:37:19;;;;;;;7.90;5.83;;;;;;;;;;5063736;28;20037;-69
2022/10/20 12:39:45;;;;;;;9.63;5.90;;;;;;;;;;5082295;28;20180;-69
2022/10/20 12:42:22;;;;;;;9.75;6.45;;;;;;;;;;5080329;28;20059;-69
2022/10/20 12:44:47;;;;;;;11.00;7.38;;;;;;;;;;5078956;28;20532;-69
2022/10/20 12:47:32;;;;;;;12.20;8.52;;;;;;;;;;5076298;28;20126;-70
2022/10/20 12:49:59;;;;;;;12.02;8.57;;;;;;;;;;5079298;28;20055;-69
2022/10/20 12:52:29;;;;;;;11.98;8.52;;;;;;;;;;5065375;28;20040;-69
2022/10/20 12:55:07;;;;;;;11.48;8.23;;;;;;;;;;5081573;28;20124;-70
2022/10/20 12:57:44;;;;;;;12.30;9.60;;;;;;;;;;5079513;28;20414;-69
2022/10/20 13:00:18;;;;;;;12.02;8.93;;;;;;;;;;5073063;28;20418;-69
2022/10/20 13:02:44;;;;;;;9.57;7.35;;;;;;;;;;5077895;28;20033;-69
2022/10/20 13:05:12;;;;;;;7.97;5.90;;;;;;;;;;5073103;28;20067;-69
2022/10/20 13:07:47;;;;;;;8.05;5.18;;;;;;;;;;5078597;28;20461;-70
2022/10/20 13:10:31;;;;;;;6.57;4.53;;;;;;;;;;5076325;28;20035;-69
2022/10/20 13:13:02;;;;;;;6.55;4.07;;;;;;;;;;5082971;28;20032;-69
2022/10/20 13:15:27;;;;;;;;;;;;;;;;;;5083150;28;20089;-69
2022/10/20 13:18:04;;;;;;;6.28;4.68;;;;;;;;;;5078345;28;19943;-69
2022/10/20 13:20:38;;;;;;;4.63;3.95;;;;;;;;;;5074545;28;20035;-70
2022/10/20 13:23:04;;;;;;;5.00;4.05;;;;;;;;;;5087417;28;20492;-69
2022/10/20 13:25:37;;;;;;;6.28;4.68;;;;;;;;;;5066156;28;20067;-69
2022/10/20 13:28:02;;;;;;;7.40;4.95;;;;;;;;;;5064570;28;20043;-69
2022/10/20 13:30:29;;;;;;;6.05;4.90;;;;;;;;;;5064920;28;20108;-69
2022/10/20 13:33:01;;;;;;;8.70;5.80;;;;;;;;;;5065393;28;20154;-69
2022/10/20 13:35:35;;;;;;;7.03;5.68;;;;;;;;;;5079269;28;20437;-69
2022/10/20 13:38:19;;;;;;;7.85;6.00;;;;;;;;;;5083980;28;20756;-69
2022/10/20 13:40:57;;;;;;;7.85;5.72;;;;;;;;;;5063633;28;20426;-69
2022/10/20 13:43:25;;;;;;;8.98;5.88;;;;;;;;;;5086274;28;20564;-69
2022/10/20 13:46:05;;;;;;;8.18;6.43;;;;;;;;;;5083801;28;20085;-69
2022/10/20 13:48:39;;;;;;;7.13;5.63;;;;;;;;;;5085631;28;20459;-69
2022/10/20 13:51:09;;;;;;;6.43;5.70;;;;;;;;;;5065824;28;20555;-69
2022/10/20 13:53:39;;;;;;;7.07;5.30;;;;;;;;;;5082688;28;20075;-69
2022/10/20 13:56:06;;;;;;;8.57;5.82;;;;;;;;;;5079172;28;20051;-69
2022/10/20 13:58:32;;;;;;;8.32;5.85;;;;;;;;;;5063055;28;20087;-69
2022/10/20 14:01:26;;;;;;;8.18;5.25;;;;;;;;;;5080633;28;20421;-69
2022/10/20 14:03:52;;;;;;;8.50;5.82;;;;;;;;;;5064433;28;20123;-69
2022/10/20 14:06:26;;;;;;;7.15;5.30;;;;;;;;;;5082866;28;20114;-69
2022/10/20 14:08:51;;;;;;;5.85;4.60;;;;;;;;;;5079713;28;20036;-69
2022/10/20 14:11:16;;;;;;;7.57;5.70;;;;;;;;;;5067236;28;20384;-69
2022/10/20 14:13:41;;;;;;;8.53;5.70;;;;;;;;;;5063945;28;20063;-69
2022/10/20 14:16:15;;;;;;;7.03;4.85;;;;;;;;;;5085260;28;20323;-69
2022/10/20 14:18:40;;;;;;;5.28;4.40;;;;;;;;;;5085671;28;20056;-69
2022/10/20 14:21:13;;;;;;;6.53;5.17;;;;;;;;;;5080566;28;20460;-69
2022/10/20 14:23:40;;;;;;;7.53;5.28;;;;;;;;;;5087203;28;20318;-69
2022/10/20 14:26:09;;;;;;;5.18;4.30;;;;;;;;;;5081279;28;20029;-70
2022/10/20 14:28:35;;;;;;;5.05;4.00;;;;;;;;;;5067160;28;20032;-69
2022/10/20 14:31:01;;;;;;;8.30;5.63;;;;;;;;;;5067142;28;20062;-69
2022/10/20 14:33:27;;;;;;;7.15;6.20;;;;;;;;;;5060707;28;20485;-69